Time;durP1;ratioP1;P1;durP2;ratioP2;P2;SDS_P1;SDS_P2;PMS_P1;PMS_P2;Temp;Humidity;BMP_temperature;BMP_pressure;BME280_temperature;BME280_humidity;BME280_pressure;Samples;Min_cycle;Max_cycle;Signal;HPM_P1;HPM_P2
2024/01/19 00:02:17;;;;;;;2.95;0.80;;;;;;;;;;4951365;28;20421;-79
2024/01/19 00:04:44;;;;;;;3.42;0.90;;;;;;;;;;4936503;29;20481;-78
2024/01/19 00:07:10;;;;;;;2.72;0.73;;;;;;;;;;4934329;29;20461;-80
2024/01/19 00:09:36;;;;;;;1.98;0.60;;;;;;;;;;4918361;29;20415;-80
2024/01/19 00:12:02;;;;;;;2.28;0.70;;;;;;;;;;4930089;28;20468;-81
2024/01/19 00:14:28;;;;;;;3.20;0.75;;;;;;;;;;4934011;29;20408;-81
2024/01/19 00:16:55;;;;;;;1.35;0.50;;;;;;;;;;4935843;28;20489;-81
2024/01/19 00:19:21;;;;;;;2.60;0.73;;;;;;;;;;4937117;29;20425;-81
2024/01/19 00:21:47;;;;;;;1.87;0.63;;;;;;;;;;4928063;29;20513;-80
2024/01/19 00:24:13;;;;;;;6.43;1.17;;;;;;;;;;4946352;28;20426;-80
2024/01/19 00:26:39;;;;;;;2.95;0.82;;;;;;;;;;4920832;29;20413;-80
2024/01/19 00:29:06;;;;;;;4.38;0.88;;;;;;;;;;4937212;29;20406;-80
2024/01/19 00:31:33;;;;;;;5.50;1.20;;;;;;;;;;4936114;29;20434;-80
2024/01/19 00:33:59;;;;;;;4.22;0.80;;;;;;;;;;4937010;29;20444;-80
2024/01/19 00:36:25;;;;;;;4.53;1.35;;;;;;;;;;4917784;28;20418;-81
2024/01/19 00:38:52;;;;;;;6.50;1.15;;;;;;;;;;4952400;28;21248;-81
2024/01/19 00:41:18;;;;;;;6.30;1.00;;;;;;;;;;4936583;29;20442;-80
2024/01/19 00:43:44;;;;;;;6.60;1.20;;;;;;;;;;4951934;28;20409;-80
2024/01/19 00:46:11;;;;;;;6.53;1.43;;;;;;;;;;4935729;29;20428;-80
2024/01/19 00:48:37;;;;;;;8.18;1.40;;;;;;;;;;4935993;28;20437;-80
2024/01/19 00:51:03;;;;;;;5.45;1.10;;;;;;;;;;4935912;28;20898;-80
2024/01/19 00:53:29;;;;;;;4.77;1.00;;;;;;;;;;4949461;28;20434;-80
2024/01/19 00:55:55;;;;;;;12.90;1.70;;;;;;;;;;4936328;29;20410;-80
2024/01/19 00:58:21;;;;;;;7.05;1.58;;;;;;;;;;4936050;29;20930;-80
2024/01/19 01:00:48;;;;;;;8.15;1.45;;;;;;;;;;4935900;28;20436;-80
2024/01/19 01:03:24;;;;;;;4.95;1.45;;;;;;;;;;4951763;28;20429;-80
2024/01/19 01:05:56;;;;;;;5.95;1.30;;;;;;;;;;4951381;28;20413;-80
2024/01/19 01:08:22;;;;;;;6.20;1.40;;;;;;;;;;4951963;28;20940;-80
2024/01/19 01:10:49;;;;;;;6.90;1.73;;;;;;;;;;4921071;29;20434;-80
2024/01/19 01:13:15;;;;;;;5.57;1.20;;;;;;;;;;4946657;28;20423;-80
2024/01/19 01:15:41;;;;;;;9.02;1.50;;;;;;;;;;4915762;29;20462;-80
2024/01/19 01:18:07;;;;;;;6.63;1.50;;;;;;;;;;4935732;29;20429;-80
2024/01/19 01:20:33;;;;;;;5.45;1.25;;;;;;;;;;4935420;28;20829;-79
2024/01/19 01:22:59;;;;;;;4.68;1.20;;;;;;;;;;4935831;29;20418;-80
2024/01/19 01:25:26;;;;;;;7.70;1.53;;;;;;;;;;4933299;29;20414;-80
2024/01/19 01:27:52;;;;;;;7.57;2.10;;;;;;;;;;4935018;29;20429;-80
2024/01/19 01:30:18;;;;;;;5.35;1.45;;;;;;;;;;4955800;28;20501;-80
2024/01/19 01:32:44;;;;;;;8.60;1.40;;;;;;;;;;4923025;29;20411;-80
2024/01/19 01:35:10;;;;;;;3.95;1.20;;;;;;;;;;4936555;29;20512;-80
2024/01/19 01:37:36;;;;;;;7.83;2.37;;;;;;;;;;4950517;28;20423;-80
2024/01/19 01:40:04;;;;;;;5.15;1.60;;;;;;;;;;4936676;29;20407;-80
2024/01/19 01:42:31;;;;;;;5.30;1.40;;;;;;;;;;4928070;29;20434;-80
2024/01/19 01:44:58;;;;;;;6.10;1.70;;;;;;;;;;4923725;29;20446;-80
2024/01/19 01:47:24;;;;;;;8.63;2.00;;;;;;;;;;4938232;28;20433;-80
2024/01/19 01:49:50;;;;;;;6.63;1.60;;;;;;;;;;4955250;28;20437;-80
2024/01/19 01:52:16;;;;;;;5.65;1.52;;;;;;;;;;4954202;28;20442;-81
2024/01/19 01:54:43;;;;;;;6.07;1.77;;;;;;;;;;4934195;29;20916;-80
2024/01/19 01:57:09;;;;;;;5.82;1.83;;;;;;;;;;4931645;28;20509;-81
2024/01/19 01:59:36;;;;;;;6.13;1.60;;;;;;;;;;4955718;28;20432;-80
2024/01/19 02:02:02;;;;;;;5.93;1.40;;;;;;;;;;4954586;28;20409;-80
2024/01/19 02:04:29;;;;;;;9.63;1.65;;;;;;;;;;4938890;28;20413;-80
2024/01/19 02:06:55;;;;;;;8.48;1.90;;;;;;;;;;4955426;28;20441;-80
2024/01/19 02:09:21;;;;;;;6.47;1.40;;;;;;;;;;4954967;28;20416;-80
2024/01/19 02:11:47;;;;;;;7.10;1.50;;;;;;;;;;4954456;28;20444;-79
2024/01/19 02:14:13;;;;;;;4.47;1.40;;;;;;;;;;4954955;28;20406;-80
2024/01/19 02:16:39;;;;;;;5.57;1.30;;;;;;;;;;4953349;28;20794;-80
2024/01/19 02:19:05;;;;;;;8.00;1.70;;;;;;;;;;4937397;29;20424;-80
2024/01/19 02:21:31;;;;;;;5.03;1.60;;;;;;;;;;4919923;29;20417;-80
2024/01/19 02:24:01;;;;;;;6.15;1.30;;;;;;;;;;4929095;28;20406;-80
2024/01/19 02:26:32;;;;;;;5.85;1.20;;;;;;;;;;4954488;28;20410;-79
2024/01/19 02:28:58;;;;;;;5.47;1.27;;;;;;;;;;4955145;29;20476;-80
2024/01/19 02:31:24;;;;;;;6.75;1.50;;;;;;;;;;4950740;28;20422;-80
2024/01/19 02:33:51;;;;;;;6.47;1.30;;;;;;;;;;4921541;29;20416;-80
2024/01/19 02:36:17;;;;;;;5.60;1.20;;;;;;;;;;4934775;29;20921;-80
2024/01/19 02:38:43;;;;;;;6.72;1.30;;;;;;;;;;4954283;28;20414;-79
2024/01/19 02:41:10;;;;;;;6.07;1.40;;;;;;;;;;4950436;28;20413;-79
2024/01/19 02:43:36;;;;;;;6.10;1.30;;;;;;;;;;4934069;29;20506;-79
2024/01/19 02:46:02;;;;;;;5.75;1.27;;;;;;;;;;4948784;28;20426;-80
2024/01/19 02:48:28;;;;;;;5.28;1.10;;;;;;;;;;4954792;28;20426;-79
2024/01/19 02:50:54;;;;;;;6.68;1.20;;;;;;;;;;4948756;28;20517;-80
2024/01/19 02:53:20;;;;;;;4.27;1.10;;;;;;;;;;4954334;28;20418;-79
2024/01/19 02:55:46;;;;;;;6.40;1.40;;;;;;;;;;4954654;28;20414;-79
2024/01/19 02:58:12;;;;;;;5.32;1.15;;;;;;;;;;4937052;29;20418;-80
2024/01/19 03:00:39;;;;;;;8.27;1.50;;;;;;;;;;4953592;28;20446;-79
2024/01/19 03:03:05;;;;;;;9.27;1.40;;;;;;;;;;4939029;29;20411;-79
2024/01/19 03:05:32;;;;;;;7.07;1.60;;;;;;;;;;4952580;28;20527;-80
2024/01/19 03:07:58;;;;;;;9.75;1.90;;;;;;;;;;4953817;28;20938;-80
2024/01/19 03:10:24;;;;;;;14.13;2.03;;;;;;;;;;4937328;29;20414;-80
2024/01/19 03:12:50;;;;;;;13.33;2.37;;;;;;;;;;4930099;29;20440;-80
2024/01/19 03:15:16;;;;;;;11.68;1.70;;;;;;;;;;4935132;29;20412;-79
2024/01/19 03:17:43;;;;;;;15.25;2.10;;;;;;;;;;4935279;29;20784;-78
2024/01/19 03:20:09;;;;;;;14.27;1.80;;;;;;;;;;4951255;28;20463;-78
2024/01/19 03:22:35;;;;;;;12.63;1.80;;;;;;;;;;4957204;28;20430;-78
2024/01/19 03:25:02;;;;;;;14.13;1.85;;;;;;;;;;4953807;28;20799;-79
2024/01/19 03:27:28;;;;;;;6.68;1.60;;;;;;;;;;4953468;28;20433;-79
2024/01/19 03:29:56;;;;;;;5.80;1.40;;;;;;;;;;4920378;28;20418;-80
2024/01/19 03:32:22;;;;;;;4.93;1.27;;;;;;;;;;4952979;28;20410;-80
2024/01/19 03:34:49;;;;;;;7.07;1.60;;;;;;;;;;4921786;29;20410;-80
2024/01/19 03:37:15;;;;;;;5.30;1.35;;;;;;;;;;4954260;28;20762;-80
2024/01/19 03:39:41;;;;;;;5.53;1.40;;;;;;;;;;4936643;28;20440;-80
2024/01/19 03:42:07;;;;;;;6.97;1.33;;;;;;;;;;4919204;29;20484;-80
2024/01/19 03:44:33;;;;;;;6.15;1.48;;;;;;;;;;4937572;28;20414;-80
2024/01/19 03:46:59;;;;;;;5.93;1.40;;;;;;;;;;4953111;28;20437;-80
2024/01/19 03:49:26;;;;;;;6.40;1.98;;;;;;;;;;4936731;29;20429;-80
2024/01/19 03:52:02;;;;;;;6.20;1.50;;;;;;;;;;4935197;29;20421;-80
2024/01/19 03:54:29;;;;;;;8.43;1.95;;;;;;;;;;4952654;28;20438;-80
2024/01/19 03:56:56;;;;;;;8.65;1.48;;;;;;;;;;4952532;28;20472;-80
2024/01/19 03:59:22;;;;;;;10.63;1.60;;;;;;;;;;4937293;28;20533;-80
2024/01/19 04:01:48;;;;;;;7.90;1.70;;;;;;;;;;4936241;29;20410;-80
2024/01/19 04:04:14;;;;;;;9.57;1.80;;;;;;;;;;4952667;28;20417;-80
2024/01/19 04:06:40;;;;;;;7.45;1.77;;;;;;;;;;4936831;29;20897;-80
2024/01/19 04:09:07;;;;;;;8.53;1.83;;;;;;;;;;4921196;28;20452;-80
2024/01/19 04:11:36;;;;;;;11.65;2.00;;;;;;;;;;4959143;28;20466;-80
2024/01/19 04:14:02;;;;;;;7.95;2.03;;;;;;;;;;4935832;28;20469;-80
2024/01/19 04:16:29;;;;;;;9.88;1.67;;;;;;;;;;4936983;29;20413;-80
2024/01/19 04:18:55;;;;;;;7.22;1.52;;;;;;;;;;4936217;29;20504;-80
2024/01/19 04:21:21;;;;;;;7.05;1.40;;;;;;;;;;4947121;28;20425;-80
2024/01/19 04:23:47;;;;;;;10.27;2.35;;;;;;;;;;4950589;28;20413;-80
2024/01/19 04:26:13;;;;;;;7.68;1.52;;;;;;;;;;4936221;28;20417;-80
2024/01/19 04:28:39;;;;;;;6.65;1.58;;;;;;;;;;4934857;28;20437;-80
2024/01/19 04:31:08;;;;;;;10.85;2.00;;;;;;;;;;4951145;28;20406;-80
2024/01/19 04:33:34;;;;;;;7.97;1.60;;;;;;;;;;4927590;28;20418;-80
2024/01/19 04:36:00;;;;;;;8.07;1.80;;;;;;;;;;4953053;28;20414;-80
2024/01/19 04:38:26;;;;;;;9.85;1.50;;;;;;;;;;4920811;28;20409;-80
2024/01/19 04:40:52;;;;;;;7.28;1.52;;;;;;;;;;4935080;28;20490;-80
2024/01/19 04:43:18;;;;;;;8.07;2.00;;;;;;;;;;4949837;28;20774;-80
2024/01/19 04:45:45;;;;;;;6.22;1.70;;;;;;;;;;4934361;29;20852;-80
2024/01/19 04:48:11;;;;;;;8.05;1.50;;;;;;;;;;4935636;28;20440;-80
2024/01/19 04:50:38;;;;;;;6.53;1.30;;;;;;;;;;4935785;29;20445;-80
2024/01/19 04:53:04;;;;;;;8.70;1.63;;;;;;;;;;4934700;28;20413;-80
2024/01/19 04:55:31;;;;;;;6.55;1.50;;;;;;;;;;4922721;29;20417;-80
2024/01/19 04:57:57;;;;;;;7.53;1.50;;;;;;;;;;4920889;28;20414;-80
2024/01/19 05:00:23;;;;;;;8.65;1.65;;;;;;;;;;4934346;28;20503;-80
2024/01/19 05:02:50;;;;;;;9.52;1.58;;;;;;;;;;4946408;28;20448;-80
2024/01/19 05:05:16;;;;;;;5.50;1.60;;;;;;;;;;4952139;28;20422;-80
2024/01/19 05:07:42;;;;;;;25.08;2.15;;;;;;;;;;4952233;28;20542;-81
2024/01/19 05:10:08;;;;;;;7.88;1.55;;;;;;;;;;4936671;29;20413;-79
2024/01/19 05:12:34;;;;;;;9.48;1.70;;;;;;;;;;4951067;28;20402;-79
2024/01/19 05:15:00;;;;;;;7.18;1.50;;;;;;;;;;4916208;28;20548;-79
2024/01/19 05:17:27;;;;;;;9.80;1.60;;;;;;;;;;4950247;28;20426;-80
2024/01/19 05:19:53;;;;;;;8.52;1.75;;;;;;;;;;4932998;29;20503;-79
2024/01/19 05:22:19;;;;;;;9.05;1.75;;;;;;;;;;4931692;29;20414;-80
2024/01/19 05:24:46;;;;;;;8.32;1.80;;;;;;;;;;4951902;28;20464;-79
2024/01/19 05:27:12;;;;;;;8.93;1.75;;;;;;;;;;4951048;28;20433;-79
2024/01/19 05:29:38;;;;;;;16.65;2.53;;;;;;;;;;4935526;29;20812;-79
2024/01/19 05:32:04;;;;;;;11.88;1.98;;;;;;;;;;4950802;28;20444;-79
2024/01/19 05:34:30;;;;;;;10.33;2.10;;;;;;;;;;4951831;28;20428;-79
2024/01/19 05:36:56;;;;;;;7.05;1.65;;;;;;;;;;4950828;28;20457;-79
2024/01/19 05:39:22;;;;;;;7.03;1.80;;;;;;;;;;4918279;29;20494;-79
2024/01/19 05:41:48;;;;;;;11.60;1.90;;;;;;;;;;4950798;28;20429;-79
2024/01/19 05:44:14;;;;;;;8.35;2.38;;;;;;;;;;4935405;29;20969;-79
2024/01/19 05:46:41;;;;;;;10.52;2.30;;;;;;;;;;4951202;28;20905;-79
2024/01/19 05:49:07;;;;;;;7.38;1.95;;;;;;;;;;4934761;28;20911;-79
2024/01/19 05:51:33;;;;;;;9.75;1.90;;;;;;;;;;4935741;28;20464;-79
2024/01/19 05:53:59;;;;;;;12.07;2.63;;;;;;;;;;4950489;28;20453;-79
2024/01/19 05:56:25;;;;;;;12.55;2.75;;;;;;;;;;4934581;28;20430;-79
2024/01/19 05:58:52;;;;;;;8.90;2.22;;;;;;;;;;4933594;29;20430;-79
2024/01/19 06:01:18;;;;;;;11.80;2.10;;;;;;;;;;4935720;29;20791;-79
2024/01/19 06:03:44;;;;;;;10.90;2.60;;;;;;;;;;4951266;28;20497;-79
2024/01/19 06:06:10;;;;;;;9.43;1.95;;;;;;;;;;4950584;28;20445;-79
2024/01/19 06:08:36;;;;;;;10.07;2.20;;;;;;;;;;4951585;28;20520;-79
2024/01/19 06:11:02;;;;;;;14.70;2.13;;;;;;;;;;4946694;28;20415;-79
2024/01/19 06:13:28;;;;;;;16.92;2.60;;;;;;;;;;4923794;28;20896;-80
2024/01/19 06:15:54;;;;;;;15.50;3.20;;;;;;;;;;4954091;28;20429;-79
2024/01/19 06:18:20;;;;;;;12.85;2.53;;;;;;;;;;4960391;28;20413;-79
2024/01/19 06:20:46;;;;;;;12.02;2.30;;;;;;;;;;4955091;28;20418;-79
2024/01/19 06:23:13;;;;;;;12.85;2.58;;;;;;;;;;4923631;29;20421;-79
2024/01/19 06:25:40;;;;;;;9.57;1.90;;;;;;;;;;4948770;29;20409;-79
2024/01/19 06:28:06;;;;;;;13.93;2.30;;;;;;;;;;4954602;28;20433;-79
2024/01/19 06:30:33;;;;;;;15.30;2.25;;;;;;;;;;4938125;29;20414;-79
2024/01/19 06:32:59;;;;;;;9.43;2.20;;;;;;;;;;4937706;29;21142;-80
2024/01/19 06:35:25;;;;;;;9.83;2.23;;;;;;;;;;4949820;28;20491;-80
2024/01/19 06:37:51;;;;;;;14.90;2.42;;;;;;;;;;4948530;28;20911;-80
2024/01/19 06:40:18;;;;;;;7.80;2.00;;;;;;;;;;4946125;28;20456;-80
2024/01/19 06:42:47;;;;;;;9.52;2.20;;;;;;;;;;4936979;29;20416;-80
2024/01/19 06:45:18;;;;;;;13.73;3.53;;;;;;;;;;4951640;28;20426;-80
2024/01/19 06:47:44;;;;;;;15.60;3.90;;;;;;;;;;4954392;28;20429;-80
2024/01/19 06:50:10;;;;;;;9.95;2.92;;;;;;;;;;4954356;28;20823;-80
2024/01/19 06:52:37;;;;;;;10.50;2.53;;;;;;;;;;4955220;28;20938;-79
2024/01/19 06:55:03;;;;;;;11.45;3.33;;;;;;;;;;4939003;29;20437;-79
2024/01/19 06:57:29;;;;;;;13.20;3.30;;;;;;;;;;4934000;28;20779;-79
2024/01/19 07:00:01;;;;;;;14.27;3.30;;;;;;;;;;4939210;28;20542;-79
2024/01/19 07:02:27;;;;;;;13.25;2.90;;;;;;;;;;4952701;28;20418;-80
2024/01/19 07:04:53;;;;;;;14.07;3.40;;;;;;;;;;4938191;28;20417;-80
2024/01/19 07:07:19;;;;;;;26.43;5.80;;;;;;;;;;4953527;28;20469;-80
2024/01/19 07:09:45;;;;;;;13.07;2.75;;;;;;;;;;4938582;28;20453;-80
2024/01/19 07:12:12;;;;;;;9.57;2.50;;;;;;;;;;4953055;28;20474;-79
2024/01/19 07:14:38;;;;;;;8.95;2.47;;;;;;;;;;4936684;28;20452;-80
2024/01/19 07:17:04;;;;;;;13.18;3.58;;;;;;;;;;4936337;28;20433;-79
2024/01/19 07:19:30;;;;;;;12.07;2.55;;;;;;;;;;4937163;28;20430;-79
2024/01/19 07:21:56;;;;;;;13.07;2.90;;;;;;;;;;4936761;29;20574;-79
2024/01/19 07:24:22;;;;;;;12.02;2.85;;;;;;;;;;4934773;29;20433;-79
2024/01/19 07:26:49;;;;;;;13.05;2.72;;;;;;;;;;4952353;28;20425;-79
2024/01/19 07:29:15;;;;;;;7.70;2.27;;;;;;;;;;4935874;28;20480;-80
2024/01/19 07:31:41;;;;;;;10.93;2.05;;;;;;;;;;4939083;28;20406;-80
2024/01/19 07:34:07;;;;;;;7.90;2.25;;;;;;;;;;4935291;29;20410;-80
2024/01/19 07:36:33;;;;;;;13.07;3.22;;;;;;;;;;4937233;29;20413;-80
2024/01/19 07:38:59;;;;;;;11.63;2.30;;;;;;;;;;4953898;28;20425;-80
2024/01/19 07:41:25;;;;;;;11.70;2.50;;;;;;;;;;4953538;28;20409;-80
2024/01/19 07:43:51;;;;;;;10.50;2.22;;;;;;;;;;4948942;28;20433;-80
2024/01/19 07:46:17;;;;;;;11.10;3.07;;;;;;;;;;4953123;28;20432;-80
2024/01/19 07:48:44;;;;;;;10.77;2.10;;;;;;;;;;4935836;28;20438;-79
2024/01/19 07:51:10;;;;;;;10.10;2.03;;;;;;;;;;4953719;28;20406;-79
2024/01/19 07:53:38;;;;;;;7.38;2.10;;;;;;;;;;4926712;28;20485;-79
2024/01/19 07:56:04;;;;;;;10.05;2.00;;;;;;;;;;4935807;29;20430;-80
2024/01/19 07:58:30;;;;;;;11.23;2.00;;;;;;;;;;4919760;29;20420;-79
2024/01/19 08:00:56;;;;;;;11.65;2.15;;;;;;;;;;4930445;29;20418;-79
2024/01/19 08:03:22;;;;;;;8.57;2.00;;;;;;;;;;4921057;28;20416;-79
2024/01/19 08:05:48;;;;;;;11.00;2.30;;;;;;;;;;4929012;29;20417;-79
2024/01/19 08:08:15;;;;;;;10.45;2.10;;;;;;;;;;4947627;28;20438;-79
2024/01/19 08:10:41;;;;;;;9.38;1.95;;;;;;;;;;4952076;28;20436;-79
2024/01/19 08:13:07;;;;;;;11.85;2.25;;;;;;;;;;4937292;29;20410;-79
2024/01/19 08:15:34;;;;;;;12.00;2.33;;;;;;;;;;4936461;29;20422;-78
2024/01/19 08:18:00;;;;;;;10.15;2.00;;;;;;;;;;4937298;29;20485;-78
2024/01/19 08:20:27;;;;;;;12.63;2.27;;;;;;;;;;4960061;28;20957;-79
2024/01/19 08:22:53;;;;;;;10.98;2.20;;;;;;;;;;4937389;29;20414;-79
2024/01/19 08:25:20;;;;;;;10.88;2.10;;;;;;;;;;4952170;28;20917;-79
2024/01/19 08:27:46;;;;;;;13.32;2.30;;;;;;;;;;4936110;29;20429;-79
2024/01/19 08:30:12;;;;;;;9.15;1.95;;;;;;;;;;4952528;29;20410;-79
2024/01/19 08:32:38;;;;;;;12.77;2.63;;;;;;;;;;4933669;29;20418;-79
2024/01/19 08:35:08;;;;;;;12.17;2.40;;;;;;;;;;4941723;28;22580;-79
2024/01/19 08:37:43;;;;;;;14.27;2.88;;;;;;;;;;4944029;28;20416;-79
2024/01/19 08:40:10;;;;;;;12.70;1.88;;;;;;;;;;4951463;28;20485;-80
2024/01/19 08:42:36;;;;;;;10.57;2.00;;;;;;;;;;4933124;29;20410;-80
2024/01/19 08:45:02;;;;;;;13.17;2.97;;;;;;;;;;4945380;28;20437;-79
2024/01/19 08:47:29;;;;;;;7.85;1.77;;;;;;;;;;4948124;29;20518;-79
2024/01/19 08:49:55;;;;;;;12.45;2.47;;;;;;;;;;4936275;28;20413;-78
2024/01/19 08:52:21;;;;;;;11.07;1.83;;;;;;;;;;4948804;28;20406;-80
2024/01/19 08:54:47;;;;;;;10.73;2.25;;;;;;;;;;4950686;28;20406;-80
2024/01/19 08:57:13;;;;;;;9.27;2.50;;;;;;;;;;4951827;28;20445;-81
2024/01/19 08:59:39;;;;;;;11.68;2.08;;;;;;;;;;4936743;29;20417;-80
2024/01/19 09:02:05;;;;;;;10.90;2.20;;;;;;;;;;4950491;28;20418;-81
2024/01/19 09:04:34;;;;;;;8.88;1.85;;;;;;;;;;4949579;28;20512;-81
2024/01/19 09:07:00;;;;;;;11.68;2.55;;;;;;;;;;4940721;29;20423;-82
2024/01/19 09:09:26;;;;;;;9.35;2.05;;;;;;;;;;4965647;28;20416;-81
2024/01/19 09:11:53;;;;;;;13.18;2.28;;;;;;;;;;4946926;29;20438;-81
2024/01/19 09:14:20;;;;;;;12.77;2.22;;;;;;;;;;4945234;28;20418;-80
2024/01/19 09:16:46;;;;;;;8.80;2.30;;;;;;;;;;4938768;28;20414;-80
2024/01/19 09:19:12;;;;;;;9.63;2.20;;;;;;;;;;4926407;28;20421;-80
2024/01/19 09:21:45;;;;;;;11.38;2.30;;;;;;;;;;4924133;29;20464;-80
2024/01/19 09:24:11;;;;;;;8.05;2.30;;;;;;;;;;4927092;28;20511;-80
2024/01/19 09:26:38;;;;;;;10.47;2.30;;;;;;;;;;4928314;28;20512;-81
2024/01/19 09:29:04;;;;;;;11.35;2.13;;;;;;;;;;4949694;28;20476;-81
2024/01/19 09:31:31;;;;;;;9.52;2.28;;;;;;;;;;4950250;28;20762;-80
2024/01/19 09:33:57;;;;;;;9.57;2.00;;;;;;;;;;4950944;28;20414;-78
2024/01/19 09:36:23;;;;;;;8.93;2.10;;;;;;;;;;4933517;29;20976;-79
2024/01/19 09:38:49;;;;;;;13.57;2.17;;;;;;;;;;4950025;28;20424;-79
2024/01/19 09:41:26;;;;;;;6.97;2.35;;;;;;;;;;4946630;28;20414;-80
2024/01/19 09:43:57;;;;;;;8.93;2.20;;;;;;;;;;4947709;28;20418;-79
2024/01/19 09:46:30;;;;;;;12.60;2.15;;;;;;;;;;4934008;29;20444;-80
2024/01/19 09:49:05;;;;;;;12.25;2.20;;;;;;;;;;4934160;28;20504;-80
2024/01/19 09:51:43;;;;;;;11.40;2.30;;;;;;;;;;4931780;29;20490;-80
2024/01/19 09:54:11;;;;;;;11.20;2.10;;;;;;;;;;4955703;28;20406;-81
2024/01/19 09:56:37;;;;;;;12.38;3.00;;;;;;;;;;4954047;28;20414;-81
2024/01/19 09:59:05;;;;;;;9.50;2.70;;;;;;;;;;4933685;29;20550;-81
2024/01/19 10:01:31;;;;;;;9.52;2.00;;;;;;;;;;4928487;28;20413;-80
2024/01/19 10:03:58;;;;;;;10.25;2.10;;;;;;;;;;4953000;28;20413;-80
2024/01/19 10:06:24;;;;;;;11.35;2.42;;;;;;;;;;4955065;28;20544;-79
2024/01/19 10:08:53;;;;;;;15.75;3.25;;;;;;;;;;4935825;28;20484;-79
2024/01/19 10:11:20;;;;;;;12.93;2.70;;;;;;;;;;4935008;29;20713;-80
2024/01/19 10:13:46;;;;;;;9.40;2.40;;;;;;;;;;4926398;28;20411;-81
2024/01/19 10:16:12;;;;;;;9.80;2.30;;;;;;;;;;4952408;28;20943;-81
2024/01/19 10:18:39;;;;;;;10.57;2.40;;;;;;;;;;4932598;29;20943;-81
2024/01/19 10:21:05;;;;;;;11.55;2.28;;;;;;;;;;4949951;28;20409;-81
2024/01/19 10:23:31;;;;;;;9.57;2.90;;;;;;;;;;4940374;28;20925;-80
2024/01/19 10:26:12;;;;;;;9.43;2.15;;;;;;;;;;4953933;28;20420;-79
2024/01/19 10:28:39;;;;;;;9.93;2.38;;;;;;;;;;4939653;28;20512;-81
2024/01/19 10:31:15;;;;;;;10.55;2.78;;;;;;;;;;4953973;28;21881;-80
2024/01/19 10:33:48;;;;;;;8.48;2.33;;;;;;;;;;4949480;28;20429;-81
2024/01/19 10:36:14;;;;;;;14.88;2.10;;;;;;;;;;4937724;28;20929;-81
2024/01/19 10:38:41;;;;;;;9.60;2.42;;;;;;;;;;4939098;29;20461;-82
2024/01/19 10:41:27;;;;;;;9.63;2.65;;;;;;;;;;4927655;29;21003;-83
2024/01/19 10:43:53;;;;;;;12.30;2.40;;;;;;;;;;4953926;28;20986;-82
2024/01/19 10:46:23;;;;;;;11.63;2.25;;;;;;;;;;4938746;28;20807;-82
2024/01/19 10:48:50;;;;;;;11.30;2.20;;;;;;;;;;4953037;28;20452;-82
2024/01/19 10:51:20;;;;;;;11.57;2.42;;;;;;;;;;4949666;28;20941;-83
2024/01/19 10:53:49;;;;;;;10.65;2.08;;;;;;;;;;4935395;29;20421;-82
2024/01/19 10:56:19;;;;;;;6.97;1.98;;;;;;;;;;4954137;28;20418;-83
2024/01/19 10:58:45;;;;;;;12.25;2.15;;;;;;;;;;4938234;29;20450;-82
2024/01/19 11:01:15;;;;;;;10.02;2.30;;;;;;;;;;4953418;28;20414;-83
2024/01/19 11:03:45;;;;;;;11.68;2.70;;;;;;;;;;4938928;29;20445;-83
2024/01/19 11:06:11;;;;;;;8.75;2.20;;;;;;;;;;4953890;29;20417;-83
2024/01/19 11:08:38;;;;;;;9.30;2.10;;;;;;;;;;4938777;28;20437;-83
2024/01/19 11:11:07;;;;;;;10.95;2.42;;;;;;;;;;4948900;28;20465;-83
2024/01/19 11:13:40;;;;;;;11.90;2.40;;;;;;;;;;4949566;29;20411;-83
2024/01/19 11:16:07;;;;;;;12.32;2.60;;;;;;;;;;4957264;28;20472;-82
2024/01/19 11:18:34;;;;;;;10.65;2.28;;;;;;;;;;4938607;28;20557;-82
2024/01/19 11:21:00;;;;;;;13.40;3.03;;;;;;;;;;4927581;29;21052;-82
2024/01/19 11:23:26;;;;;;;9.75;2.10;;;;;;;;;;4943998;28;20419;-84
2024/01/19 11:26:11;;;;;;;7.65;1.92;;;;;;;;;;4934363;28;20930;-83
2024/01/19 11:29:10;;;;;;;7.35;2.00;;;;;;;;;;4958967;28;20442;-83
2024/01/19 11:31:39;;;;;;;11.77;2.10;;;;;;;;;;4912022;29;20417;-83
2024/01/19 11:34:05;;;;;;;9.35;2.45;;;;;;;;;;4941341;28;20404;-83
2024/01/19 11:36:43;;;;;;;10.63;2.20;;;;;;;;;;4951937;28;20418;-82
2024/01/19 11:39:10;;;;;;;10.38;2.03;;;;;;;;;;4953206;29;20410;-82
2024/01/19 11:41:36;;;;;;;11.65;1.88;;;;;;;;;;4931979;29;20468;-81
2024/01/19 11:44:06;;;;;;;10.73;2.22;;;;;;;;;;4943364;28;20415;-81
2024/01/19 11:46:44;;;;;;;11.38;2.20;;;;;;;;;;4953694;28;20421;-81
2024/01/19 11:49:29;;;;;;;10.05;2.00;;;;;;;;;;4953704;28;20434;-82
2024/01/19 11:51:56;;;;;;;10.27;2.03;;;;;;;;;;4941249;28;21090;-82
2024/01/19 11:54:29;;;;;;;14.13;2.25;;;;;;;;;;4935090;29;20431;-81
2024/01/19 11:57:14;;;;;;;7.70;2.17;;;;;;;;;;4936991;28;20417;-81
2024/01/19 11:59:41;;;;;;;9.80;1.80;;;;;;;;;;4953263;28;20405;-80
2024/01/19 12:02:07;;;;;;;13.43;2.05;;;;;;;;;;4952573;28;20422;-80
2024/01/19 12:04:35;;;;;;;6.28;1.55;;;;;;;;;;4950883;28;20512;-80
2024/01/19 12:07:06;;;;;;;9.10;1.67;;;;;;;;;;4951720;28;20420;-80
2024/01/19 12:09:35;;;;;;;8.98;1.90;;;;;;;;;;4959794;28;20491;-81
2024/01/19 12:12:01;;;;;;;10.10;2.00;;;;;;;;;;4957273;28;20409;-82
2024/01/19 12:14:27;;;;;;;10.57;1.45;;;;;;;;;;4938302;28;20473;-83
2024/01/19 12:16:56;;;;;;;13.20;2.03;;;;;;;;;;4921332;28;20429;-82
2024/01/19 12:19:24;;;;;;;8.45;1.50;;;;;;;;;;4937248;29;20430;-83
2024/01/19 12:22:03;;;;;;;7.97;1.80;;;;;;;;;;4950106;28;20772;-83
2024/01/19 12:24:29;;;;;;;7.85;1.60;;;;;;;;;;4953651;28;20815;-83
2024/01/19 12:26:56;;;;;;;8.23;1.83;;;;;;;;;;4936427;29;20491;-83
2024/01/19 12:29:31;;;;;;;6.32;1.33;;;;;;;;;;4953038;28;20501;-83
2024/01/19 12:32:14;;;;;;;9.85;1.92;;;;;;;;;;4953275;28;20482;-84
2024/01/19 12:34:45;;;;;;;7.32;1.90;;;;;;;;;;4953060;28;20922;-85
2024/01/19 12:37:15;;;;;;;13.57;2.00;;;;;;;;;;4933927;29;20414;-85
2024/01/19 12:39:43;;;;;;;8.48;1.70;;;;;;;;;;4936206;28;20413;-85
2024/01/19 12:42:09;;;;;;;6.40;1.50;;;;;;;;;;4950788;28;20404;-85
2024/01/19 12:44:35;;;;;;;7.80;1.60;;;;;;;;;;4938397;28;20410;-85
2024/01/19 12:47:03;;;;;;;7.25;1.65;;;;;;;;;;4954801;28;20410;-84
2024/01/19 12:49:29;;;;;;;5.35;1.60;;;;;;;;;;4920832;29;20433;-84
2024/01/19 12:51:58;;;;;;;6.82;1.67;;;;;;;;;;4934928;29;20441;-84
2024/01/19 12:54:43;;;;;;;10.45;2.00;;;;;;;;;;4936185;29;20453;-84
2024/01/19 12:57:19;;;;;;;7.75;1.70;;;;;;;;;;4967925;28;20463;-85
2024/01/19 12:59:48;;;;;;;7.32;1.80;;;;;;;;;;4946655;28;20467;-85
2024/01/19 13:02:15;;;;;;;8.32;1.90;;;;;;;;;;4950962;28;20405;-84
2024/01/19 13:04:41;;;;;;;9.82;1.70;;;;;;;;;;4926013;29;20407;-84
2024/01/19 13:07:08;;;;;;;8.77;1.90;;;;;;;;;;4949279;28;20463;-85
2024/01/19 13:09:37;;;;;;;9.17;1.70;;;;;;;;;;4940051;28;20993;-82
2024/01/19 13:12:10;;;;;;;11.52;1.95;;;;;;;;;;4934652;28;20394;-83
2024/01/19 13:14:36;;;;;;;7.32;1.45;;;;;;;;;;4951645;28;20409;-84
2024/01/19 13:17:05;;;;;;;6.22;1.70;;;;;;;;;;4951985;28;20442;-83
2024/01/19 13:19:31;;;;;;;8.65;1.70;;;;;;;;;;4938014;28;20962;-84
2024/01/19 13:21:57;;;;;;;5.68;1.50;;;;;;;;;;4937706;29;20497;-83
2024/01/19 13:24:24;;;;;;;10.77;1.98;;;;;;;;;;4951536;28;20429;-83
2024/01/19 13:27:11;;;;;;;8.18;1.40;;;;;;;;;;4936820;28;20433;-82
2024/01/19 13:29:56;;;;;;;6.55;1.45;;;;;;;;;;4950885;28;20500;-83
2024/01/19 13:32:23;;;;;;;8.05;1.67;;;;;;;;;;4951752;28;20417;-82
2024/01/19 13:34:52;;;;;;;3.92;1.50;;;;;;;;;;4947044;28;20426;-83
2024/01/19 13:37:37;;;;;;;11.02;1.65;;;;;;;;;;4953494;28;20423;-82
2024/01/19 13:40:07;;;;;;;7.25;1.52;;;;;;;;;;4907782;29;20411;-82
2024/01/19 13:42:33;;;;;;;7.93;1.50;;;;;;;;;;4916208;29;20439;-82
2024/01/19 13:45:02;;;;;;;7.97;1.90;;;;;;;;;;4915220;29;20439;-83
2024/01/19 13:47:29;;;;;;;9.32;2.05;;;;;;;;;;4916005;29;20463;-82
2024/01/19 13:49:55;;;;;;;8.98;1.67;;;;;;;;;;4912892;29;20420;-82
2024/01/19 13:52:39;;;;;;;7.18;1.90;;;;;;;;;;4914110;29;20423;-83
2024/01/19 13:55:06;;;;;;;7.28;1.90;;;;;;;;;;4898680;29;20486;-83
2024/01/19 13:57:48;;;;;;;8.75;2.15;;;;;;;;;;4905535;29;20455;-82
2024/01/19 14:00:49;;;;;;;10.27;2.08;;;;;;;;;;4915838;29;20547;-83
2024/01/19 14:04:12;;;;;;;7.67;2.10;;;;;;;;;;4874282;29;20416;-83
2024/01/19 14:07:00;;;;;;;9.02;2.13;;;;;;;;;;4912383;29;20455;-83
2024/01/19 14:09:38;;;;;;;9.65;2.28;;;;;;;;;;4908718;29;20458;-83
2024/01/19 14:12:15;;;;;;;9.77;2.50;;;;;;;;;;4931609;29;20428;-83
2024/01/19 14:14:54;;;;;;;10.35;2.90;;;;;;;;;;4962308;28;20404;-83
2024/01/19 14:20:11;;;;;;;8.85;2.30;;;;;;;;;;4927309;28;20456;-82
2024/01/19 14:22:56;;;;;;;9.32;2.63;;;;;;;;;;4934808;28;20443;-83
2024/01/19 14:25:57;;;;;;;7.30;2.20;;;;;;;;;;4932571;29;20490;-82
2024/01/19 14:32:14;;;;;;;;;;;;;;;;;;;;;
2024/01/19 14:34:49;;;;;;;9.07;2.30;;;;;;;;;;4921434;28;20793;-83
2024/01/19 14:41:16;;;;;;;10.60;2.67;;;;;;;;;;4951090;28;20409;-83
2024/01/19 14:44:12;;;;;;;12.70;3.35;;;;;;;;;;4947872;28;20774;-83
2024/01/19 14:47:17;;;;;;;;;;;;;;;;;;;;;
2024/01/19 14:50:35;;;;;;;9.82;2.70;;;;;;;;;;4919066;29;20878;-82
2024/01/19 14:53:37;;;;;;;8.98;2.40;;;;;;;;;;4931498;29;20400;-83
2024/01/19 15:03:11;;;;;;;9.35;2.70;;;;;;;;;;4928926;29;20508;-81
2024/01/19 15:05:38;;;;;;;12.33;3.17;;;;;;;;;;4903653;29;20776;-81
2024/01/19 15:08:04;;;;;;;9.43;3.20;;;;;;;;;;4886441;29;20463;-81